| time (UTC) | temp F | wind direction | speed MPH | gust MPH | rain 1hr in | rain 24hr in | rain mn in | humidity % | barometer mb |
| 20260507111559 | 43 | 235 | 1.0 | 7.0 | 0.00 | 0.20 | 0.01 | 91 | 1008.3 |
| 20260507110021 | 43 | 295 | 2.0 | 9.0 | 0.00 | 0.20 | 0.01 | 91 | 1008.3 |
| 20260507104602 | 43 | 259 | 1.0 | 8.0 | 0.00 | 0.20 | 0.01 | 91 | 1008.1 |
| 20260507103023 | 43 | 317 | 3.0 | 6.0 | 0.00 | 0.20 | 0.01 | 91 | 1007.8 |
| 20260507101556 | 43 | 315 | 2.0 | 8.0 | 0.00 | 0.20 | 0.01 | 91 | 1007.7 |
| 20260507100037 | 43 | 275 | 5.0 | 10.0 | 0.00 | 0.20 | 0.01 | 91 | 1007.6 |
| 20260507094606 | 43 | 282 | 2.0 | 4.0 | 0.00 | 0.20 | 0.01 | 91 | 1007.7 |
| 20260507093022 | 43 | 342 | 2.0 | 6.0 | 0.00 | 0.20 | 0.01 | 91 | 1007.9 |
| 20260507091551 | 43 | 292 | 2.0 | 6.0 | 0.00 | 0.20 | 0.01 | 91 | 1007.8 |
| 20260507090024 | 43 | 336 | 3.0 | 9.0 | 0.00 | 0.20 | 0.01 | 91 | 1007.7 |
| 20260507084502 | 43 | 294 | 2.0 | 6.0 | 0.00 | 0.20 | 0.01 | 91 | 1008.2 |
| 20260507083026 | 43 | 281 | 2.0 | 9.0 | 0.01 | 0.20 | 0.01 | 91 | 1008.0 |
| 20260507081557 | 44 | 293 | 2.0 | 8.0 | 0.01 | 0.20 | 0.01 | 91 | 1008.1 |
| 20260507080030 | 44 | 263 | 3.0 | 7.0 | 0.01 | 0.20 | 0.01 | 91 | 1007.8 |
| 20260507074503 | 44 | 333 | 0.0 | 5.0 | 0.01 | 0.20 | 0.01 | 90 | 1007.3 |
| 20260507073040 | 44 | 284 | 2.0 | 12.0 | 0.00 | 0.19 | 0.00 | 90 | 1007.6 |
| 20260507071521 | 44 | 283 | 2.0 | 7.0 | 0.00 | 0.19 | 0.00 | 89 | 1007.7 |
| 20260507070005 | 44 | 296 | 4.0 | 10.0 | 0.00 | 0.19 | 0.00 | 89 | 1007.1 |
| 20260507064549 | 44 | 329 | 4.0 | 10.0 | 0.00 | 0.19 | 0.00 | 89 | 1007.2 |
| 20260507063032 | 44 | 287 | 4.0 | 12.0 | 0.00 | 0.19 | 0.00 | 89 | 1007.0 |
| 20260507061517 | 45 | 290 | 4.0 | 10.0 | 0.00 | 0.19 | 0.00 | 89 | 1007.0 |
| 20260507060003 | 45 | 270 | 3.0 | 8.0 | 0.00 | 0.19 | 0.00 | 91 | 1007.0 |
| 20260507054543 | 45 | 280 | 5.0 | 9.0 | 0.00 | 0.19 | 0.00 | 91 | 1007.3 |
| 20260507053029 | 45 | 279 | 1.0 | 9.0 | 0.00 | 0.19 | 0.00 | 90 | 1007.8 |
| 20260507051605 | 46 | 277 | 3.0 | 13.0 | 0.00 | 0.19 | 0.00 | 90 | 1007.6 |
| 20260507044531 | 46 | 250 | 3.0 | 7.0 | 0.00 | 0.19 | 0.00 | 90 | 1007.4 |
| 20260507043004 | 47 | 275 | 3.0 | 8.0 | 0.00 | 0.19 | 0.00 | 90 | 1007.2 |
| 20260507041536 | 47 | 281 | 2.0 | 14.0 | 0.00 | 0.19 | 0.00 | 89 | 1007.1 |
| 20260507040016 | 48 | 254 | 6.0 | 13.0 | 0.00 | 0.19 | 0.00 | 90 | 1007.3 |
| 20260507034502 | 49 | 304 | 3.0 | 13.0 | 0.00 | 0.19 | 0.19 | 91 | 1007.0 |
| 20260507033048 | 49 | 279 | 3.0 | 17.0 | 0.01 | 0.19 | 0.19 | 91 | 1007.1 |
| 20260507031533 | 50 | 317 | 4.0 | 13.0 | 0.02 | 0.19 | 0.19 | 91 | 1006.7 |
| 20260507030007 | 51 | 287 | 5.0 | 11.0 | 0.02 | 0.19 | 0.19 | 89 | 1006.8 |
| 20260507024549 | 52 | 316 | 6.0 | 16.0 | 0.03 | 0.19 | 0.19 | 90 | 1006.4 |
| 20260507023038 | 53 | 322 | 6.0 | 15.0 | 0.02 | 0.18 | 0.18 | 91 | 1006.6 |
| 20260507021519 | 54 | 277 | 5.0 | 13.0 | 0.01 | 0.17 | 0.17 | 91 | 1006.9 |
| 20260507020045 | 55 | 298 | 4.0 | 14.0 | 0.01 | 0.17 | 0.17 | 92 | 1006.2 |
| 20260507014520 | 56 | 292 | 3.0 | 11.0 | 0.00 | 0.16 | 0.16 | 92 | 1005.9 |
| 20260507013053 | 56 | 223 | 3.0 | 14.0 | 0.00 | 0.16 | 0.16 | 93 | 1006.1 |
| 20260507011529 | 56 | 267 | 2.0 | 8.0 | 0.00 | 0.16 | 0.16 | 92 | 1005.6 |
| 20260507010055 | 56 | 189 | 3.0 | 8.0 | 0.00 | 0.16 | 0.16 | 92 | 1005.6 |
| 20260507004523 | 56 | 206 | 0.0 | 11.0 | 0.00 | 0.16 | 0.16 | 92 | 1005.5 |
| 20260507003055 | 56 | 195 | 2.0 | 8.0 | 0.00 | 0.16 | 0.16 | 92 | 1005.3 |
| 20260507001534 | 56 | 197 | 2.0 | 10.0 | 0.00 | 0.16 | 0.16 | 92 | 1005.0 |
| 20260507000004 | 56 | 153 | 3.0 | 8.0 | 0.00 | 0.16 | 0.16 | 92 | 1005.0 |
| 20260506234543 | 57 | 197 | 2.0 | 8.0 | 0.00 | 0.16 | 0.16 | 92 | 1005.0 |
| 20260506233006 | 57 | 234 | 3.0 | 10.0 | 0.00 | 0.16 | 0.16 | 92 | 1004.8 |
| 20260506231537 | 57 | 189 | 1.0 | 9.0 | 0.00 | 0.16 | 0.16 | 92 | 1004.7 |
| 20260506230010 | 57 | 202 | 2.0 | 8.0 | 0.00 | 0.16 | 0.16 | 92 | 1004.6 |
| 20260506224545 | 57 | 206 | 1.0 | 10.0 | 0.00 | 0.16 | 0.16 | 92 | 1004.7 |
| 20260506223016 | 57 | 225 | 3.0 | 10.0 | 0.00 | 0.16 | 0.16 | 92 | 1005.0 |
| 20260506221541 | 57 | 196 | 3.0 | 12.0 | 0.00 | 0.16 | 0.16 | 91 | 1004.9 |
| 20260506220009 | 57 | 207 | 2.0 | 10.0 | 0.01 | 0.16 | 0.16 | 91 | 1005.0 |
| 20260506214547 | 57 | 198 | 4.0 | 10.0 | 0.03 | 0.16 | 0.16 | 91 | 1004.9 |
| 20260506213022 | 57 | 214 | 3.0 | 16.0 | 0.04 | 0.16 | 0.16 | 91 | 1005.0 |
| 20260506211549 | 57 | 273 | 3.0 | 9.0 | 0.06 | 0.16 | 0.16 | 91 | 1004.9 |
| 20260506210023 | 57 | 265 | 2.0 | 9.0 | 0.08 | 0.15 | 0.15 | 91 | 1005.1 |
| 20260506204501 | 58 | 181 | 3.0 | 9.0 | 0.07 | 0.13 | 0.13 | 90 | 1005.2 |
| 20260506203035 | 58 | 163 | 4.0 | 11.0 | 0.08 | 0.12 | 0.12 | 90 | 1005.3 |
| 20260506201612 | 58 | 199 | 2.0 | 9.0 | 0.07 | 0.10 | 0.10 | 90 | 1005.6 |
| 20260506200057 | 59 | 209 | 1.0 | 16.0 | 0.04 | 0.07 | 0.07 | 90 | 1005.6 |
| 20260506194526 | 59 | 182 | 2.0 | 8.0 | 0.04 | 0.06 | 0.06 | 90 | 1005.8 |
| 20260506193016 | 59 | 185 | 1.0 | 6.0 | 0.02 | 0.04 | 0.04 | 89 | 1005.9 |
| 20260506191559 | 59 | 238 | 3.0 | 6.0 | 0.01 | 0.03 | 0.03 | 88 | 1005.9 |
| 20260506190044 | 60 | 153 | 2.0 | 7.0 | 0.02 | 0.03 | 0.03 | 88 | 1005.9 |
| 20260506184531 | 60 | 216 | 2.0 | 14.0 | 0.02 | 0.02 | 0.02 | 88 | 1005.7 |
| 20260506183015 | 60 | 173 | 2.0 | 8.0 | 0.02 | 0.02 | 0.02 | 87 | 1006.0 |
| 20260506181507 | 61 | 211 | 3.0 | 7.0 | 0.02 | 0.02 | 0.02 | 85 | 1006.3 |
| 20260506180053 | 61 | 233 | 1.0 | 5.0 | 0.01 | 0.01 | 0.01 | 85 | 1006.6 |
| 20260506174539 | 62 | 231 | 1.0 | 6.0 | 0.00 | 0.00 | 0.00 | 82 | 1006.9 |
| 20260506173025 | 63 | 212 | 1.0 | 5.0 | 0.00 | 0.00 | 0.00 | 79 | 1007.2 |
| 20260506170038 | 65 | 206 | 4.0 | 12.0 | 0.00 | 0.00 | 0.00 | 70 | 1007.0 |
| 20260506164506 | 66 | 190 | 3.0 | 10.0 | 0.00 | 0.00 | 0.00 | 70 | 1007.1 |
| 20260506163038 | 65 | 211 | 2.0 | 9.0 | 0.00 | 0.00 | 0.00 | 70 | 1007.1 |
| 20260506161509 | 65 | 209 | 3.0 | 11.0 | 0.00 | 0.00 | 0.00 | 70 | 1007.5 |
| 20260506160045 | 65 | 186 | 3.0 | 10.0 | 0.00 | 0.00 | 0.00 | 70 | 1007.6 |
| 20260506154516 | 65 | 211 | 5.0 | 16.0 | 0.00 | 0.00 | 0.00 | 70 | 1007.8 |
| 20260506153047 | 65 | 225 | 3.0 | 10.0 | 0.00 | 0.00 | 0.00 | 70 | 1008.0 |
| 20260506151530 | 65 | 222 | 3.0 | 10.0 | 0.00 | 0.00 | 0.00 | 70 | 1008.1 |
| 20260506150050 | 65 | 204 | 2.0 | 13.0 | 0.00 | 0.00 | 0.00 | 69 | 1008.2 |
| 20260506144512 | 66 | 238 | 3.0 | 13.0 | 0.00 | 0.00 | 0.00 | 68 | 1008.3 |
| 20260506143045 | 66 | 204 | 3.0 | 12.0 | 0.00 | 0.00 | 0.00 | 69 | 1008.1 |
| 20260506141508 | 67 | 180 | 5.0 | 15.0 | 0.00 | 0.00 | 0.00 | 68 | 1008.0 |
| 20260506140039 | 66 | 202 | 3.0 | 10.0 | 0.00 | 0.00 | 0.00 | 70 | 1007.8 |
| 20260506134518 | 65 | 221 | 5.0 | 18.0 | 0.00 | 0.00 | 0.00 | 72 | 1007.7 |
| 20260506133051 | 64 | 250 | 2.0 | 15.0 | 0.00 | 0.00 | 0.00 | 74 | 1008.0 |
| 20260506131525 | 63 | 184 | 4.0 | 13.0 | 0.00 | 0.00 | 0.00 | 75 | 1008.2 |
| 20260506130110 | 63 | 186 | 3.0 | 9.0 | 0.00 | 0.00 | 0.00 | 76 | 1008.3 |
| 20260506124522 | 62 | 202 | 3.0 | 10.0 | 0.00 | 0.00 | 0.00 | 78 | 1008.4 |
| 20260506123054 | 61 | 180 | 2.0 | 11.0 | 0.00 | 0.00 | 0.00 | 79 | 1008.6 |
| 20260506121525 | 60 | 225 | 3.0 | 9.0 | 0.00 | 0.00 | 0.00 | 81 | 1008.4 |
| 20260506120100 | 60 | 186 | 4.0 | 11.0 | 0.00 | 0.00 | 0.00 | 81 | 1008.5 |
| 20260506114538 | 59 | 242 | 2.0 | 9.0 | 0.00 | 0.00 | 0.00 | 81 | 1008.8 |
| 20260506113106 | 58 | 173 | 3.0 | 14.0 | 0.00 | 0.00 | 0.00 | 83 | 1008.7 |